sensor_id;sensor_type;location;lat;lon;timestamp;P1;durP1;ratioP1;P2;durP2;ratioP2
14048;SDS011;7099;53.922;10.728;2024-03-29T00:01:30;2.33;;;2.13;;
14048;SDS011;7099;53.922;10.728;2024-03-29T00:05:35;2.60;;;1.93;;
14048;SDS011;7099;53.922;10.728;2024-03-29T00:09:39;3.10;;;2.00;;
14048;SDS011;7099;53.922;10.728;2024-03-29T00:13:44;4.33;;;1.90;;
14048;SDS011;7099;53.922;10.728;2024-03-29T00:17:48;7.20;;;1.70;;
14048;SDS011;7099;53.922;10.728;2024-03-29T00:21:53;1.80;;;1.50;;
14048;SDS011;7099;53.922;10.728;2024-03-29T00:25:57;2.40;;;1.50;;
14048;SDS011;7099;53.922;10.728;2024-03-29T00:30:02;2.00;;;1.63;;
14048;SDS011;7099;53.922;10.728;2024-03-29T00:34:07;3.30;;;1.60;;
14048;SDS011;7099;53.922;10.728;2024-03-29T00:38:11;1.97;;;1.40;;
14048;SDS011;7099;53.922;10.728;2024-03-29T00:42:16;5.43;;;1.47;;
14048;SDS011;7099;53.922;10.728;2024-03-29T00:46:23;7.13;;;1.20;;
14048;SDS011;7099;53.922;10.728;2024-03-29T00:50:27;3.07;;;1.53;;
14048;SDS011;7099;53.922;10.728;2024-03-29T00:54:32;2.53;;;1.33;;
14048;SDS011;7099;53.922;10.728;2024-03-29T00:58:36;2.20;;;1.40;;
14048;SDS011;7099;53.922;10.728;2024-03-29T01:02:41;2.30;;;1.30;;
14048;SDS011;7099;53.922;10.728;2024-03-29T01:06:45;2.40;;;1.13;;
14048;SDS011;7099;53.922;10.728;2024-03-29T01:10:50;4.70;;;1.40;;
14048;SDS011;7099;53.922;10.728;2024-03-29T01:14:54;4.30;;;1.20;;
14048;SDS011;7099;53.922;10.728;2024-03-29T01:18:59;8.07;;;1.20;;
14048;SDS011;7099;53.922;10.728;2024-03-29T01:23:03;2.47;;;1.30;;
14048;SDS011;7099;53.922;10.728;2024-03-29T01:27:08;1.90;;;1.17;;
14048;SDS011;7099;53.922;10.728;2024-03-29T01:31:12;3.90;;;1.30;;
14048;SDS011;7099;53.922;10.728;2024-03-29T01:35:17;4.60;;;1.60;;
14048;SDS011;7099;53.922;10.728;2024-03-29T01:39:21;2.93;;;1.40;;
14048;SDS011;7099;53.922;10.728;2024-03-29T01:43:32;3.33;;;1.67;;
14048;SDS011;7099;53.922;10.728;2024-03-29T01:47:37;3.50;;;1.67;;
14048;SDS011;7099;53.922;10.728;2024-03-29T01:51:42;2.90;;;1.50;;
14048;SDS011;7099;53.922;10.728;2024-03-29T01:55:47;1.50;;;1.33;;
14048;SDS011;7099;53.922;10.728;2024-03-29T01:59:52;1.50;;;1.30;;
14048;SDS011;7099;53.922;10.728;2024-03-29T02:03:56;3.60;;;1.53;;
14048;SDS011;7099;53.922;10.728;2024-03-29T02:08:01;4.00;;;1.57;;
14048;SDS011;7099;53.922;10.728;2024-03-29T02:12:07;3.80;;;1.57;;
14048;SDS011;7099;53.922;10.728;2024-03-29T02:16:12;2.95;;;1.40;;
14048;SDS011;7099;53.922;10.728;2024-03-29T02:20:16;1.93;;;1.33;;
14048;SDS011;7099;53.922;10.728;2024-03-29T02:24:21;3.20;;;1.80;;
14048;SDS011;7099;53.922;10.728;2024-03-29T02:28:25;4.80;;;1.20;;
14048;SDS011;7099;53.922;10.728;2024-03-29T02:32:30;1.80;;;1.10;;
14048;SDS011;7099;53.922;10.728;2024-03-29T02:36:34;2.40;;;1.60;;
14048;SDS011;7099;53.922;10.728;2024-03-29T02:40:39;1.57;;;1.20;;
14048;SDS011;7099;53.922;10.728;2024-03-29T02:44:43;11.60;;;1.27;;
14048;SDS011;7099;53.922;10.728;2024-03-29T02:48:50;0.90;;;0.90;;
14048;SDS011;7099;53.922;10.728;2024-03-29T02:52:54;2.97;;;1.00;;
14048;SDS011;7099;53.922;10.728;2024-03-29T02:56:59;1.43;;;1.20;;
14048;SDS011;7099;53.922;10.728;2024-03-29T03:01:07;2.50;;;1.30;;
14048;SDS011;7099;53.922;10.728;2024-03-29T03:05:12;2.33;;;1.00;;
14048;SDS011;7099;53.922;10.728;2024-03-29T03:09:16;2.50;;;1.03;;
14048;SDS011;7099;53.922;10.728;2024-03-29T03:13:39;4.60;;;1.20;;
14048;SDS011;7099;53.922;10.728;2024-03-29T03:17:44;2.93;;;1.23;;
14048;SDS011;7099;53.922;10.728;2024-03-29T03:21:50;2.50;;;1.10;;
14048;SDS011;7099;53.922;10.728;2024-03-29T03:25:57;7.03;;;1.20;;
14048;SDS011;7099;53.922;10.728;2024-03-29T03:30:04;2.43;;;1.13;;
14048;SDS011;7099;53.922;10.728;2024-03-29T03:34:09;9.97;;;1.03;;
14048;SDS011;7099;53.922;10.728;2024-03-29T03:38:14;2.30;;;1.10;;
14048;SDS011;7099;53.922;10.728;2024-03-29T03:42:19;3.33;;;1.30;;
14048;SDS011;7099;53.922;10.728;2024-03-29T03:46:23;2.20;;;1.10;;
14048;SDS011;7099;53.922;10.728;2024-03-29T03:50:28;3.87;;;1.50;;
14048;SDS011;7099;53.922;10.728;2024-03-29T03:54:33;7.00;;;1.33;;
14048;SDS011;7099;53.922;10.728;2024-03-29T03:58:38;2.60;;;1.20;;
14048;SDS011;7099;53.922;10.728;2024-03-29T04:02:46;1.13;;;1.03;;
14048;SDS011;7099;53.922;10.728;2024-03-29T04:06:54;1.90;;;1.13;;
14048;SDS011;7099;53.922;10.728;2024-03-29T04:11:02;1.63;;;1.33;;
14048;SDS011;7099;53.922;10.728;2024-03-29T04:15:07;2.07;;;1.30;;
14048;SDS011;7099;53.922;10.728;2024-03-29T04:19:12;2.50;;;1.57;;
14048;SDS011;7099;53.922;10.728;2024-03-29T04:23:16;2.00;;;1.40;;
14048;SDS011;7099;53.922;10.728;2024-03-29T04:27:21;3.70;;;1.40;;
14048;SDS011;7099;53.922;10.728;2024-03-29T04:31:26;3.00;;;1.10;;
14048;SDS011;7099;53.922;10.728;2024-03-29T04:35:31;2.23;;;1.20;;
14048;SDS011;7099;53.922;10.728;2024-03-29T04:39:35;2.80;;;1.30;;
14048;SDS011;7099;53.922;10.728;2024-03-29T04:43:40;2.03;;;1.17;;
14048;SDS011;7099;53.922;10.728;2024-03-29T04:47:44;1.20;;;1.10;;
14048;SDS011;7099;53.922;10.728;2024-03-29T04:51:49;1.77;;;1.23;;
14048;SDS011;7099;53.922;10.728;2024-03-29T04:55:54;1.80;;;1.00;;
14048;SDS011;7099;53.922;10.728;2024-03-29T04:59:59;1.60;;;1.13;;
14048;SDS011;7099;53.922;10.728;2024-03-29T05:04:04;6.30;;;1.43;;
14048;SDS011;7099;53.922;10.728;2024-03-29T05:08:09;2.47;;;1.20;;
14048;SDS011;7099;53.922;10.728;2024-03-29T05:12:14;2.00;;;1.20;;
14048;SDS011;7099;53.922;10.728;2024-03-29T05:16:18;1.87;;;1.20;;
14048;SDS011;7099;53.922;10.728;2024-03-29T05:20:25;1.97;;;1.23;;
14048;SDS011;7099;53.922;10.728;2024-03-29T05:24:30;5.10;;;1.63;;
14048;SDS011;7099;53.922;10.728;2024-03-29T05:28:34;3.97;;;1.63;;
14048;SDS011;7099;53.922;10.728;2024-03-29T05:32:39;2.10;;;0.97;;
14048;SDS011;7099;53.922;10.728;2024-03-29T05:36:44;2.43;;;0.90;;
14048;SDS011;7099;53.922;10.728;2024-03-29T05:40:49;2.00;;;1.03;;
14048;SDS011;7099;53.922;10.728;2024-03-29T05:44:53;4.97;;;1.00;;
14048;SDS011;7099;53.922;10.728;2024-03-29T05:48:58;2.90;;;1.10;;
14048;SDS011;7099;53.922;10.728;2024-03-29T05:53:02;1.70;;;1.10;;
14048;SDS011;7099;53.922;10.728;2024-03-29T05:57:07;3.63;;;1.30;;
14048;SDS011;7099;53.922;10.728;2024-03-29T06:01:12;2.60;;;1.10;;
14048;SDS011;7099;53.922;10.728;2024-03-29T06:05:16;5.33;;;1.20;;
14048;SDS011;7099;53.922;10.728;2024-03-29T06:09:21;3.70;;;1.27;;
14048;SDS011;7099;53.922;10.728;2024-03-29T06:13:25;3.57;;;1.20;;
14048;SDS011;7099;53.922;10.728;2024-03-29T06:17:48;7.47;;;1.30;;
14048;SDS011;7099;53.922;10.728;2024-03-29T06:21:53;1.50;;;1.07;;
14048;SDS011;7099;53.922;10.728;2024-03-29T06:25:57;1.57;;;0.90;;
14048;SDS011;7099;53.922;10.728;2024-03-29T06:30:02;1.27;;;0.90;;
14048;SDS011;7099;53.922;10.728;2024-03-29T06:34:09;3.17;;;1.00;;
14048;SDS011;7099;53.922;10.728;2024-03-29T06:38:13;2.50;;;1.10;;
14048;SDS011;7099;53.922;10.728;2024-03-29T06:42:19;2.50;;;1.10;;
14048;SDS011;7099;53.922;10.728;2024-03-29T06:46:23;1.27;;;1.10;;
14048;SDS011;7099;53.922;10.728;2024-03-29T06:50:28;3.63;;;1.13;;
14048;SDS011;7099;53.922;10.728;2024-03-29T06:54:32;2.50;;;0.97;;
14048;SDS011;7099;53.922;10.728;2024-03-29T06:58:37;2.03;;;1.20;;
14048;SDS011;7099;53.922;10.728;2024-03-29T07:02:41;2.07;;;1.00;;
14048;SDS011;7099;53.922;10.728;2024-03-29T07:06:46;3.83;;;1.10;;
14048;SDS011;7099;53.922;10.728;2024-03-29T07:11:00;5.00;;;1.20;;
14048;SDS011;7099;53.922;10.728;2024-03-29T07:15:06;2.40;;;0.90;;
14048;SDS011;7099;53.922;10.728;2024-03-29T07:19:11;1.50;;;1.03;;
14048;SDS011;7099;53.922;10.728;2024-03-29T07:23:16;2.17;;;0.90;;
14048;SDS011;7099;53.922;10.728;2024-03-29T07:27:21;1.53;;;1.13;;
14048;SDS011;7099;53.922;10.728;2024-03-29T07:31:26;3.70;;;1.13;;
14048;SDS011;7099;53.922;10.728;2024-03-29T07:35:31;5.50;;;1.40;;
14048;SDS011;7099;53.922;10.728;2024-03-29T07:39:35;3.40;;;1.23;;
14048;SDS011;7099;53.922;10.728;2024-03-29T07:43:40;3.33;;;1.10;;
14048;SDS011;7099;53.922;10.728;2024-03-29T07:48:00;3.10;;;1.20;;
14048;SDS011;7099;53.922;10.728;2024-03-29T07:52:05;1.63;;;0.97;;
14048;SDS011;7099;53.922;10.728;2024-03-29T07:56:10;3.43;;;1.43;;
14048;SDS011;7099;53.922;10.728;2024-03-29T08:00:15;3.60;;;1.47;;
14048;SDS011;7099;53.922;10.728;2024-03-29T08:04:20;3.20;;;1.00;;
14048;SDS011;7099;53.922;10.728;2024-03-29T08:08:24;2.27;;;1.03;;
14048;SDS011;7099;53.922;10.728;2024-03-29T08:12:30;3.87;;;1.17;;
14048;SDS011;7099;53.922;10.728;2024-03-29T08:16:36;3.13;;;1.20;;
14048;SDS011;7099;53.922;10.728;2024-03-29T08:20:40;1.97;;;1.10;;
14048;SDS011;7099;53.922;10.728;2024-03-29T08:24:46;3.07;;;1.00;;
14048;SDS011;7099;53.922;10.728;2024-03-29T08:28:50;2.43;;;0.90;;
14048;SDS011;7099;53.922;10.728;2024-03-29T08:32:55;1.30;;;0.93;;
14048;SDS011;7099;53.922;10.728;2024-03-29T08:37:01;2.57;;;0.80;;
14048;SDS011;7099;53.922;10.728;2024-03-29T08:41:06;1.73;;;0.80;;
14048;SDS011;7099;53.922;10.728;2024-03-29T08:45:11;3.67;;;1.20;;
14048;SDS011;7099;53.922;10.728;2024-03-29T08:49:16;1.50;;;0.80;;
14048;SDS011;7099;53.922;10.728;2024-03-29T08:53:21;3.43;;;1.00;;
14048;SDS011;7099;53.922;10.728;2024-03-29T08:57:26;7.23;;;1.93;;
14048;SDS011;7099;53.922;10.728;2024-03-29T09:01:30;2.50;;;1.10;;
14048;SDS011;7099;53.922;10.728;2024-03-29T09:05:35;2.50;;;1.37;;
14048;SDS011;7099;53.922;10.728;2024-03-29T09:21:58;6.23;;;0.80;;
14048;SDS011;7099;53.922;10.728;2024-03-29T09:26:04;8.00;;;1.07;;
14048;SDS011;7099;53.922;10.728;2024-03-29T09:30:10;6.70;;;1.20;;
14048;SDS011;7099;53.922;10.728;2024-03-29T09:34:16;1.37;;;1.27;;
14048;SDS011;7099;53.922;10.728;2024-03-29T09:38:20;3.80;;;1.27;;
14048;SDS011;7099;53.922;10.728;2024-03-29T09:42:25;2.67;;;0.80;;
14048;SDS011;7099;53.922;10.728;2024-03-29T09:46:30;1.77;;;0.93;;
14048;SDS011;7099;53.922;10.728;2024-03-29T09:50:37;2.50;;;1.00;;
14048;SDS011;7099;53.922;10.728;2024-03-29T09:54:42;3.40;;;0.90;;
14048;SDS011;7099;53.922;10.728;2024-03-29T09:58:46;5.30;;;1.30;;
14048;SDS011;7099;53.922;10.728;2024-03-29T10:02:52;1.43;;;1.00;;
14048;SDS011;7099;53.922;10.728;2024-03-29T10:07:00;2.90;;;1.17;;
14048;SDS011;7099;53.922;10.728;2024-03-29T10:11:05;1.23;;;0.97;;
14048;SDS011;7099;53.922;10.728;2024-03-29T10:15:10;3.70;;;1.10;;
14048;SDS011;7099;53.922;10.728;2024-03-29T10:19:19;2.30;;;0.80;;
14048;SDS011;7099;53.922;10.728;2024-03-29T10:23:26;2.30;;;1.07;;
14048;SDS011;7099;53.922;10.728;2024-03-29T10:27:31;1.33;;;1.00;;
14048;SDS011;7099;53.922;10.728;2024-03-29T10:31:36;1.20;;;1.00;;
14048;SDS011;7099;53.922;10.728;2024-03-29T10:35:41;3.10;;;1.17;;
14048;SDS011;7099;53.922;10.728;2024-03-29T10:39:47;6.13;;;0.90;;
14048;SDS011;7099;53.922;10.728;2024-03-29T10:43:51;3.17;;;1.17;;
14048;SDS011;7099;53.922;10.728;2024-03-29T10:48:00;2.00;;;1.03;;
14048;SDS011;7099;53.922;10.728;2024-03-29T10:52:07;2.53;;;1.13;;
14048;SDS011;7099;53.922;10.728;2024-03-29T10:56:17;1.33;;;0.90;;
14048;SDS011;7099;53.922;10.728;2024-03-29T11:00:25;1.80;;;1.20;;
14048;SDS011;7099;53.922;10.728;2024-03-29T11:04:34;2.60;;;0.90;;
14048;SDS011;7099;53.922;10.728;2024-03-29T11:08:43;3.13;;;1.17;;
14048;SDS011;7099;53.922;10.728;2024-03-29T11:12:58;4.27;;;1.07;;
14048;SDS011;7099;53.922;10.728;2024-03-29T11:17:13;2.30;;;0.90;;
14048;SDS011;7099;53.922;10.728;2024-03-29T11:21:18;1.77;;;0.70;;
14048;SDS011;7099;53.922;10.728;2024-03-29T11:25:24;6.37;;;1.10;;
14048;SDS011;7099;53.922;10.728;2024-03-29T11:29:28;4.30;;;1.20;;
14048;SDS011;7099;53.922;10.728;2024-03-29T11:37:55;1.90;;;1.10;;
14048;SDS011;7099;53.922;10.728;2024-03-29T11:42:02;1.93;;;1.10;;
14048;SDS011;7099;53.922;10.728;2024-03-29T11:46:09;2.70;;;1.17;;
14048;SDS011;7099;53.922;10.728;2024-03-29T11:50:15;4.00;;;1.07;;
14048;SDS011;7099;53.922;10.728;2024-03-29T11:54:20;3.77;;;1.07;;
14048;SDS011;7099;53.922;10.728;2024-03-29T11:58:27;3.33;;;1.37;;
14048;SDS011;7099;53.922;10.728;2024-03-29T12:02:33;3.10;;;1.37;;
14048;SDS011;7099;53.922;10.728;2024-03-29T12:06:37;2.87;;;1.03;;
14048;SDS011;7099;53.922;10.728;2024-03-29T12:10:43;2.70;;;1.00;;
14048;SDS011;7099;53.922;10.728;2024-03-29T12:14:48;4.13;;;1.10;;
14048;SDS011;7099;53.922;10.728;2024-03-29T12:18:54;1.50;;;1.17;;
14048;SDS011;7099;53.922;10.728;2024-03-29T12:22:59;3.00;;;1.17;;
14048;SDS011;7099;53.922;10.728;2024-03-29T12:27:08;1.77;;;1.20;;
14048;SDS011;7099;53.922;10.728;2024-03-29T12:31:13;5.57;;;1.47;;
14048;SDS011;7099;53.922;10.728;2024-03-29T12:35:17;2.73;;;1.40;;
14048;SDS011;7099;53.922;10.728;2024-03-29T12:39:22;2.50;;;1.17;;
14048;SDS011;7099;53.922;10.728;2024-03-29T12:43:29;2.83;;;1.30;;
14048;SDS011;7099;53.922;10.728;2024-03-29T12:47:34;3.77;;;1.40;;
14048;SDS011;7099;53.922;10.728;2024-03-29T12:51:40;3.63;;;1.10;;
14048;SDS011;7099;53.922;10.728;2024-03-29T13:12:08;2.17;;;1.30;;
14048;SDS011;7099;53.922;10.728;2024-03-29T13:16:13;1.63;;;1.17;;
14048;SDS011;7099;53.922;10.728;2024-03-29T13:20:18;3.07;;;1.40;;
14048;SDS011;7099;53.922;10.728;2024-03-29T13:24:23;2.77;;;1.37;;
14048;SDS011;7099;53.922;10.728;2024-03-29T13:28:27;2.93;;;1.37;;
14048;SDS011;7099;53.922;10.728;2024-03-29T13:32:32;6.63;;;1.40;;
14048;SDS011;7099;53.922;10.728;2024-03-29T13:36:39;2.13;;;1.30;;
14048;SDS011;7099;53.922;10.728;2024-03-29T13:40:44;2.00;;;1.20;;
14048;SDS011;7099;53.922;10.728;2024-03-29T13:44:51;1.20;;;1.10;;
14048;SDS011;7099;53.922;10.728;2024-03-29T13:48:56;2.03;;;1.17;;
14048;SDS011;7099;53.922;10.728;2024-03-29T13:53:01;2.60;;;1.20;;
14048;SDS011;7099;53.922;10.728;2024-03-29T14:05:17;3.90;;;1.20;;
14048;SDS011;7099;53.922;10.728;2024-03-29T14:13:26;5.47;;;1.20;;
14048;SDS011;7099;53.922;10.728;2024-03-29T14:17:31;2.20;;;1.30;;
14048;SDS011;7099;53.922;10.728;2024-03-29T14:21:35;3.70;;;1.30;;
14048;SDS011;7099;53.922;10.728;2024-03-29T14:25:40;2.93;;;1.20;;
14048;SDS011;7099;53.922;10.728;2024-03-29T14:29:44;1.30;;;1.20;;
14048;SDS011;7099;53.922;10.728;2024-03-29T14:33:50;1.73;;;1.20;;
14048;SDS011;7099;53.922;10.728;2024-03-29T14:37:54;1.60;;;1.00;;
14048;SDS011;7099;53.922;10.728;2024-03-29T14:41:59;2.10;;;1.20;;
14048;SDS011;7099;53.922;10.728;2024-03-29T14:46:08;1.83;;;1.20;;
14048;SDS011;7099;53.922;10.728;2024-03-29T14:50:13;2.13;;;0.90;;
14048;SDS011;7099;53.922;10.728;2024-03-29T14:54:19;2.37;;;1.20;;
14048;SDS011;7099;53.922;10.728;2024-03-29T14:58:23;3.43;;;1.10;;
14048;SDS011;7099;53.922;10.728;2024-03-29T15:02:28;3.47;;;1.03;;
14048;SDS011;7099;53.922;10.728;2024-03-29T15:06:32;1.40;;;1.10;;
14048;SDS011;7099;53.922;10.728;2024-03-29T15:10:37;1.90;;;1.00;;
14048;SDS011;7099;53.922;10.728;2024-03-29T15:14:41;1.03;;;0.83;;
14048;SDS011;7099;53.922;10.728;2024-03-29T15:18:46;1.63;;;1.03;;
14048;SDS011;7099;53.922;10.728;2024-03-29T15:22:51;2.70;;;1.10;;
14048;SDS011;7099;53.922;10.728;2024-03-29T15:26:57;3.00;;;1.17;;
14048;SDS011;7099;53.922;10.728;2024-03-29T15:31:13;1.27;;;1.10;;
14048;SDS011;7099;53.922;10.728;2024-03-29T15:35:26;3.17;;;1.00;;
14048;SDS011;7099;53.922;10.728;2024-03-29T15:39:30;1.10;;;1.00;;
14048;SDS011;7099;53.922;10.728;2024-03-29T15:43:35;1.87;;;1.00;;
14048;SDS011;7099;53.922;10.728;2024-03-29T15:47:40;3.43;;;0.97;;
14048;SDS011;7099;53.922;10.728;2024-03-29T15:51:44;2.00;;;0.80;;
14048;SDS011;7099;53.922;10.728;2024-03-29T15:55:49;3.03;;;1.10;;
14048;SDS011;7099;53.922;10.728;2024-03-29T15:59:53;1.60;;;1.00;;
14048;SDS011;7099;53.922;10.728;2024-03-29T16:03:58;1.50;;;1.20;;
14048;SDS011;7099;53.922;10.728;2024-03-29T16:08:03;1.63;;;1.10;;
14048;SDS011;7099;53.922;10.728;2024-03-29T16:12:07;2.00;;;1.20;;
14048;SDS011;7099;53.922;10.728;2024-03-29T16:16:12;1.40;;;0.97;;
14048;SDS011;7099;53.922;10.728;2024-03-29T16:20:17;3.43;;;1.20;;
14048;SDS011;7099;53.922;10.728;2024-03-29T16:24:21;1.50;;;0.90;;
14048;SDS011;7099;53.922;10.728;2024-03-29T16:28:27;1.47;;;0.90;;
14048;SDS011;7099;53.922;10.728;2024-03-29T16:32:31;2.13;;;1.30;;
14048;SDS011;7099;53.922;10.728;2024-03-29T16:36:38;1.27;;;1.07;;
14048;SDS011;7099;53.922;10.728;2024-03-29T16:40:43;1.20;;;1.10;;
14048;SDS011;7099;53.922;10.728;2024-03-29T16:44:48;3.50;;;1.53;;
14048;SDS011;7099;53.922;10.728;2024-03-29T16:48:53;1.30;;;1.20;;
14048;SDS011;7099;53.922;10.728;2024-03-29T16:52:57;3.40;;;1.20;;
14048;SDS011;7099;53.922;10.728;2024-03-29T16:57:02;1.10;;;1.00;;
14048;SDS011;7099;53.922;10.728;2024-03-29T17:01:06;1.63;;;1.50;;
14048;SDS011;7099;53.922;10.728;2024-03-29T17:05:11;1.40;;;1.30;;
14048;SDS011;7099;53.922;10.728;2024-03-29T17:09:34;2.30;;;1.47;;
14048;SDS011;7099;53.922;10.728;2024-03-29T17:13:43;3.53;;;1.17;;
14048;SDS011;7099;53.922;10.728;2024-03-29T17:17:49;1.50;;;1.30;;
14048;SDS011;7099;53.922;10.728;2024-03-29T17:21:54;2.37;;;1.37;;
14048;SDS011;7099;53.922;10.728;2024-03-29T17:25:58;2.20;;;1.33;;
14048;SDS011;7099;53.922;10.728;2024-03-29T17:30:03;2.00;;;1.40;;
14048;SDS011;7099;53.922;10.728;2024-03-29T17:34:09;1.93;;;1.50;;
14048;SDS011;7099;53.922;10.728;2024-03-29T17:38:16;1.77;;;1.40;;
14048;SDS011;7099;53.922;10.728;2024-03-29T17:42:21;2.87;;;1.23;;
14048;SDS011;7099;53.922;10.728;2024-03-29T17:46:26;2.00;;;1.30;;
14048;SDS011;7099;53.922;10.728;2024-03-29T17:50:31;1.83;;;1.50;;
14048;SDS011;7099;53.922;10.728;2024-03-29T17:54:35;1.83;;;1.50;;
14048;SDS011;7099;53.922;10.728;2024-03-29T17:58:40;3.37;;;1.67;;
14048;SDS011;7099;53.922;10.728;2024-03-29T18:02:44;2.50;;;1.63;;
14048;SDS011;7099;53.922;10.728;2024-03-29T18:06:49;2.77;;;1.40;;
14048;SDS011;7099;53.922;10.728;2024-03-29T18:10:53;1.30;;;1.20;;
14048;SDS011;7099;53.922;10.728;2024-03-29T18:14:58;1.40;;;1.30;;
14048;SDS011;7099;53.922;10.728;2024-03-29T18:19:02;1.70;;;1.50;;
14048;SDS011;7099;53.922;10.728;2024-03-29T18:23:08;4.30;;;1.80;;
14048;SDS011;7099;53.922;10.728;2024-03-29T18:27:12;4.67;;;1.83;;
14048;SDS011;7099;53.922;10.728;2024-03-29T18:31:17;2.70;;;1.70;;
14048;SDS011;7099;53.922;10.728;2024-03-29T18:35:21;2.40;;;1.77;;
14048;SDS011;7099;53.922;10.728;2024-03-29T18:39:28;2.93;;;1.50;;
14048;SDS011;7099;53.922;10.728;2024-03-29T18:43:32;2.47;;;1.80;;
14048;SDS011;7099;53.922;10.728;2024-03-29T18:47:37;2.13;;;1.57;;
14048;SDS011;7099;53.922;10.728;2024-03-29T18:51:42;3.90;;;1.67;;
14048;SDS011;7099;53.922;10.728;2024-03-29T18:55:53;3.23;;;1.80;;
14048;SDS011;7099;53.922;10.728;2024-03-29T19:00:06;4.23;;;2.00;;
14048;SDS011;7099;53.922;10.728;2024-03-29T19:04:12;6.50;;;4.20;;
14048;SDS011;7099;53.922;10.728;2024-03-29T19:08:19;7.93;;;4.13;;
14048;SDS011;7099;53.922;10.728;2024-03-29T19:12:26;6.93;;;4.57;;
14048;SDS011;7099;53.922;10.728;2024-03-29T19:16:31;5.33;;;3.67;;
14048;SDS011;7099;53.922;10.728;2024-03-29T19:20:35;5.27;;;3.43;;
14048;SDS011;7099;53.922;10.728;2024-03-29T19:24:40;4.10;;;2.43;;
14048;SDS011;7099;53.922;10.728;2024-03-29T19:28:46;6.70;;;2.00;;
14048;SDS011;7099;53.922;10.728;2024-03-29T19:32:55;3.13;;;2.30;;
14048;SDS011;7099;53.922;10.728;2024-03-29T19:37:01;5.20;;;3.20;;
14048;SDS011;7099;53.922;10.728;2024-03-29T19:41:05;7.47;;;4.23;;
14048;SDS011;7099;53.922;10.728;2024-03-29T19:45:10;5.17;;;2.70;;
14048;SDS011;7099;53.922;10.728;2024-03-29T19:49:14;7.37;;;3.17;;
14048;SDS011;7099;53.922;10.728;2024-03-29T19:53:22;5.03;;;2.47;;
14048;SDS011;7099;53.922;10.728;2024-03-29T19:57:28;5.13;;;2.67;;
14048;SDS011;7099;53.922;10.728;2024-03-29T20:01:48;3.13;;;2.30;;
14048;SDS011;7099;53.922;10.728;2024-03-29T20:05:52;3.10;;;2.30;;
14048;SDS011;7099;53.922;10.728;2024-03-29T20:09:57;3.67;;;2.97;;
14048;SDS011;7099;53.922;10.728;2024-03-29T20:14:01;7.40;;;3.30;;
14048;SDS011;7099;53.922;10.728;2024-03-29T20:18:09;6.13;;;3.40;;
14048;SDS011;7099;53.922;10.728;2024-03-29T20:22:15;6.30;;;4.97;;
14048;SDS011;7099;53.922;10.728;2024-03-29T20:26:19;8.50;;;4.20;;
14048;SDS011;7099;53.922;10.728;2024-03-29T20:30:24;3.80;;;3.40;;
14048;SDS011;7099;53.922;10.728;2024-03-29T20:34:28;4.40;;;2.80;;
14048;SDS011;7099;53.922;10.728;2024-03-29T20:38:34;3.80;;;2.80;;
14048;SDS011;7099;53.922;10.728;2024-03-29T20:42:38;3.60;;;2.67;;
14048;SDS011;7099;53.922;10.728;2024-03-29T20:46:43;6.20;;;3.57;;
14048;SDS011;7099;53.922;10.728;2024-03-29T20:50:57;5.77;;;4.10;;
14048;SDS011;7099;53.922;10.728;2024-03-29T20:55:02;5.20;;;3.40;;
14048;SDS011;7099;53.922;10.728;2024-03-29T20:59:11;5.90;;;4.00;;
14048;SDS011;7099;53.922;10.728;2024-03-29T21:07:38;13.80;;;8.30;;
14048;SDS011;7099;53.922;10.728;2024-03-29T21:11:44;15.63;;;9.37;;
14048;SDS011;7099;53.922;10.728;2024-03-29T21:15:49;10.67;;;7.67;;
14048;SDS011;7099;53.922;10.728;2024-03-29T21:19:53;13.17;;;6.70;;
14048;SDS011;7099;53.922;10.728;2024-03-29T21:23:58;7.37;;;4.50;;
14048;SDS011;7099;53.922;10.728;2024-03-29T21:28:02;12.90;;;5.10;;
14048;SDS011;7099;53.922;10.728;2024-03-29T21:32:07;6.07;;;4.17;;
14048;SDS011;7099;53.922;10.728;2024-03-29T21:36:11;4.20;;;2.50;;
14048;SDS011;7099;53.922;10.728;2024-03-29T21:40:16;3.03;;;2.57;;
14048;SDS011;7099;53.922;10.728;2024-03-29T21:44:21;3.87;;;3.10;;
14048;SDS011;7099;53.922;10.728;2024-03-29T21:48:27;4.87;;;2.80;;
14048;SDS011;7099;53.922;10.728;2024-03-29T21:52:31;4.40;;;3.23;;
14048;SDS011;7099;53.922;10.728;2024-03-29T21:56:36;4.37;;;3.07;;
14048;SDS011;7099;53.922;10.728;2024-03-29T22:00:41;7.60;;;3.00;;
14048;SDS011;7099;53.922;10.728;2024-03-29T22:04:46;3.10;;;2.77;;
14048;SDS011;7099;53.922;10.728;2024-03-29T22:08:50;3.30;;;2.93;;
14048;SDS011;7099;53.922;10.728;2024-03-29T22:12:55;3.17;;;2.87;;
14048;SDS011;7099;53.922;10.728;2024-03-29T22:17:00;5.50;;;3.60;;
14048;SDS011;7099;53.922;10.728;2024-03-29T22:21:04;5.57;;;3.10;;
14048;SDS011;7099;53.922;10.728;2024-03-29T22:25:09;4.83;;;3.00;;
14048;SDS011;7099;53.922;10.728;2024-03-29T22:29:13;7.00;;;3.57;;
14048;SDS011;7099;53.922;10.728;2024-03-29T22:33:18;8.10;;;3.23;;
14048;SDS011;7099;53.922;10.728;2024-03-29T22:37:22;4.23;;;2.50;;
14048;SDS011;7099;53.922;10.728;2024-03-29T22:41:27;5.10;;;3.80;;
14048;SDS011;7099;53.922;10.728;2024-03-29T22:45:31;5.87;;;3.90;;
14048;SDS011;7099;53.922;10.728;2024-03-29T22:49:36;4.23;;;3.10;;
14048;SDS011;7099;53.922;10.728;2024-03-29T22:53:40;4.00;;;3.60;;
14048;SDS011;7099;53.922;10.728;2024-03-29T22:57:45;5.17;;;3.90;;
14048;SDS011;7099;53.922;10.728;2024-03-29T23:01:49;4.03;;;3.00;;
14048;SDS011;7099;53.922;10.728;2024-03-29T23:05:54;3.70;;;2.83;;
14048;SDS011;7099;53.922;10.728;2024-03-29T23:09:58;5.77;;;3.47;;
14048;SDS011;7099;53.922;10.728;2024-03-29T23:14:03;5.20;;;3.93;;
14048;SDS011;7099;53.922;10.728;2024-03-29T23:18:07;5.83;;;4.47;;
14048;SDS011;7099;53.922;10.728;2024-03-29T23:22:12;5.60;;;4.23;;
14048;SDS011;7099;53.922;10.728;2024-03-29T23:26:18;12.33;;;4.47;;
14048;SDS011;7099;53.922;10.728;2024-03-29T23:30:23;5.10;;;4.43;;
14048;SDS011;7099;53.922;10.728;2024-03-29T23:34:27;7.00;;;4.13;;
14048;SDS011;7099;53.922;10.728;2024-03-29T23:38:32;10.33;;;4.30;;
14048;SDS011;7099;53.922;10.728;2024-03-29T23:42:38;6.13;;;4.00;;
14048;SDS011;7099;53.922;10.728;2024-03-29T23:46:42;6.03;;;4.70;;
14048;SDS011;7099;53.922;10.728;2024-03-29T23:50:53;4.60;;;3.93;;
14048;SDS011;7099;53.922;10.728;2024-03-29T23:55:00;4.67;;;4.10;;
14048;SDS011;7099;53.922;10.728;2024-03-29T23:59:10;5.67;;;4.47;;
